Time;durP1;ratioP1;P1;durP2;ratioP2;P2;SDS_P1;SDS_P2;PMS_P1;PMS_P2;Temp;Humidity;BMP_temperature;BMP_pressure;BME280_temperature;BME280_humidity;BME280_pressure;Samples;Min_cycle;Max_cycle;Signal;HPM_P1;HPM_P2
2021/08/30 00:00:32;;;;;;;0.73;0.73;;;15.50;99.90;;;;;;4385451;32;20438;-73
2021/08/30 00:02:57;;;;;;;0.40;0.40;;;15.50;99.90;;;;;;4385842;32;20062;-73
2021/08/30 00:05:23;;;;;;;0.20;0.20;;;15.50;99.90;;;;;;4386501;32;20066;-73
2021/08/30 00:07:48;;;;;;;0.40;0.40;;;15.40;99.90;;;;;;4385601;32;20067;-73
2021/08/30 00:10:14;;;;;;;0.85;0.55;;;15.40;99.90;;;;;;4386028;32;20070;-74
2021/08/30 00:12:40;;;;;;;0.30;0.30;;;15.30;99.90;;;;;;4385656;32;20074;-73
2021/08/30 00:15:07;;;;;;;0.30;0.30;;;15.30;99.90;;;;;;4385795;32;20122;-73
2021/08/30 00:17:33;;;;;;;0.40;0.40;;;15.30;99.90;;;;;;4386293;32;20063;-73
2021/08/30 00:19:59;;;;;;;2.50;0.40;;;15.20;99.90;;;;;;4387222;32;20651;-73
2021/08/30 00:22:24;;;;;;;0.32;0.32;;;15.20;99.90;;;;;;4386522;32;20065;-73
2021/08/30 00:24:49;;;;;;;0.28;0.28;;;15.20;99.90;;;;;;4385914;32;20083;-73
2021/08/30 00:27:15;;;;;;;0.37;0.37;;;15.10;99.90;;;;;;4386344;32;20394;-73
2021/08/30 00:29:40;;;;;;;0.37;0.37;;;15.20;99.90;;;;;;4385454;32;20067;-73
2021/08/30 00:32:06;;;;;;;0.40;0.40;;;15.20;99.90;;;;;;4386046;32;20072;-73
2021/08/30 00:34:31;;;;;;;0.40;0.40;;;15.20;99.90;;;;;;4385139;32;20508;-73
2021/08/30 00:36:57;;;;;;;0.50;0.50;;;15.30;99.90;;;;;;4385349;32;20134;-73
2021/08/30 00:39:23;;;;;;;0.28;0.28;;;15.30;99.90;;;;;;4385312;32;20070;-73
2021/08/30 00:41:53;;;;;;;0.32;0.32;;;15.30;99.90;;;;;;4385764;32;20066;-73
2021/08/30 00:44:19;;;;;;;0.40;0.40;;;15.30;99.90;;;;;;4384948;32;20403;-72
2021/08/30 00:46:44;;;;;;;3.30;1.42;;;15.40;99.90;;;;;;4385255;32;20083;-73
2021/08/30 00:49:10;;;;;;;0.30;0.30;;;15.40;99.90;;;;;;4386086;32;20083;-72
2021/08/30 00:51:35;;;;;;;0.30;0.30;;;15.40;99.90;;;;;;4385415;32;20066;-73
2021/08/30 00:54:01;;;;;;;0.30;0.30;;;15.40;99.90;;;;;;4386406;32;20086;-73
2021/08/30 00:56:27;;;;;;;0.57;0.40;;;15.50;99.90;;;;;;4386413;32;20082;-73
2021/08/30 00:58:53;;;;;;;0.30;0.30;;;15.50;99.90;;;;;;4385337;32;20066;-73
2021/08/30 01:01:19;;;;;;;0.40;0.40;;;15.50;99.90;;;;;;4385132;32;20097;-73
2021/08/30 01:03:44;;;;;;;0.90;0.50;;;15.50;99.90;;;;;;4385668;32;20070;-73
2021/08/30 01:06:22;;;;;;;0.40;0.40;;;15.50;99.90;;;;;;4386497;32;20397;-73
2021/08/30 01:08:56;;;;;;;0.30;0.30;;;15.50;99.90;;;;;;4385389;32;20062;-73
2021/08/30 01:11:26;;;;;;;0.50;0.50;;;15.50;99.90;;;;;;4385198;32;20066;-74
2021/08/30 01:14:00;;;;;;;0.30;0.30;;;15.50;99.90;;;;;;4384766;32;20074;-72
2021/08/30 01:16:27;;;;;;;0.45;0.45;;;15.50;99.90;;;;;;4384806;32;20082;-73
2021/08/30 01:18:54;;;;;;;0.43;0.40;;;15.50;99.90;;;;;;4385114;32;20231;-72
2021/08/30 01:21:24;;;;;;;0.30;0.30;;;15.40;99.90;;;;;;4385187;32;20449;-73
2021/08/30 01:23:57;;;;;;;0.30;0.30;;;15.50;99.90;;;;;;4385275;32;20137;-73
2021/08/30 01:26:26;;;;;;;5.10;0.60;;;15.40;99.90;;;;;;4385023;32;20083;-73
2021/08/30 01:29:14;;;;;;;0.50;0.50;;;15.40;99.90;;;;;;4385532;32;20070;-72
2021/08/30 01:31:47;;;;;;;0.40;0.40;;;15.40;99.90;;;;;;4374441;32;20069;-73
2021/08/30 01:34:14;;;;;;;0.40;0.40;;;15.30;99.90;;;;;;4385233;32;20074;-73
2021/08/30 01:36:40;;;;;;;1.30;0.75;;;15.30;99.90;;;;;;4386399;32;20118;-73
2021/08/30 01:39:06;;;;;;;0.30;0.30;;;15.30;99.90;;;;;;4385813;32;20078;-73
2021/08/30 01:41:33;;;;;;;0.40;0.40;;;15.30;99.90;;;;;;4385013;32;20511;-72
2021/08/30 01:43:59;;;;;;;0.37;0.37;;;15.20;99.90;;;;;;4384113;32;20071;-73
2021/08/30 01:46:26;;;;;;;0.20;0.20;;;15.10;99.90;;;;;;4384799;32;20403;-73
2021/08/30 01:48:53;;;;;;;0.30;0.30;;;15.20;99.90;;;;;;4384342;32;20067;-73
2021/08/30 01:51:22;;;;;;;0.35;0.35;;;15.30;99.90;;;;;;4384857;32;20069;-73
2021/08/30 01:53:50;;;;;;;0.50;0.50;;;15.30;99.90;;;;;;4385214;32;20070;-73
2021/08/30 01:56:18;;;;;;;0.40;0.40;;;15.30;99.90;;;;;;4385128;32;20109;-73
2021/08/30 02:00:47;;;;;;;0.32;0.32;;;15.30;99.90;;;;;;4385302;32;20087;-73
2021/08/30 02:01:32;;;;;;;0.75;0.62;;;15.30;99.90;;;;;;4372806;32;20082;-73
2021/08/30 02:03:57;;;;;;;0.40;0.40;;;15.30;99.90;;;;;;4384054;32;20074;-73
2021/08/30 02:06:23;;;;;;;0.40;0.40;;;15.40;99.90;;;;;;4384671;32;20134;-73
2021/08/30 02:08:49;;;;;;;0.30;0.30;;;15.30;99.90;;;;;;4384631;32;20062;-73
2021/08/30 02:11:20;;;;;;;0.40;0.40;;;15.30;99.90;;;;;;4384207;32;20070;-73
2021/08/30 02:13:46;;;;;;;0.50;0.50;;;15.40;99.90;;;;;;4384061;32;20528;-73
2021/08/30 02:16:12;;;;;;;0.40;0.40;;;15.40;99.90;;;;;;4385142;32;20058;-73
2021/08/30 02:18:43;;;;;;;0.30;0.30;;;15.40;99.90;;;;;;4384497;32;20082;-73
2021/08/30 02:21:35;;;;;;;1.30;1.10;;;15.40;99.90;;;;;;4384198;32;20087;-73
2021/08/30 02:24:22;;;;;;;0.30;0.30;;;15.30;99.90;;;;;;4372664;32;20083;-73
2021/08/30 02:26:55;;;;;;;4.57;0.50;;;15.30;99.90;;;;;;4384235;32;20079;-73
2021/08/30 02:29:25;;;;;;;0.40;0.40;;;15.30;99.90;;;;;;4384580;32;20126;-73
2021/08/30 02:31:56;;;;;;;0.50;0.50;;;15.30;99.90;;;;;;4383962;32;20536;-73
2021/08/30 02:34:25;;;;;;;0.40;0.40;;;15.30;99.90;;;;;;4383965;32;20081;-73
2021/08/30 02:36:52;;;;;;;0.40;0.40;;;15.30;99.90;;;;;;4384126;32;20074;-73
2021/08/30 02:39:19;;;;;;;0.40;0.40;;;15.20;99.90;;;;;;4384323;32;20067;-73
2021/08/30 02:41:46;;;;;;;0.32;0.32;;;15.20;99.90;;;;;;4383791;32;20066;-73
2021/08/30 02:44:14;;;;;;;0.37;0.37;;;15.20;99.90;;;;;;4383667;32;20086;-73
2021/08/30 02:46:42;;;;;;;0.62;0.62;;;15.10;99.90;;;;;;4383048;32;20090;-73
2021/08/30 02:49:09;;;;;;;0.30;0.30;;;15.20;99.90;;;;;;4384123;32;20108;-73
2021/08/30 02:51:35;;;;;;;0.30;0.30;;;15.20;99.90;;;;;;4383893;32;20067;-73
2021/08/30 02:54:01;;;;;;;0.40;0.40;;;15.20;99.90;;;;;;4384310;32;20066;-73
2021/08/30 02:56:27;;;;;;;1.35;1.05;;;15.30;99.90;;;;;;4384175;32;20078;-73
2021/08/30 02:58:54;;;;;;;0.45;0.45;;;15.30;99.90;;;;;;4384250;32;20062;-73
2021/08/30 03:01:20;;;;;;;0.40;0.40;;;15.30;99.90;;;;;;4383972;32;20398;-73
2021/08/30 03:03:46;;;;;;;0.40;0.40;;;15.30;99.90;;;;;;4384673;32;20066;-73
2021/08/30 03:06:14;;;;;;;0.40;0.40;;;15.40;99.90;;;;;;4383690;32;20066;-73
2021/08/30 03:08:40;;;;;;;0.40;0.40;;;15.40;99.90;;;;;;4384158;32;20516;-73
2021/08/30 03:11:09;;;;;;;0.20;0.20;;;15.30;99.90;;;;;;4383846;32;20063;-73
2021/08/30 03:13:38;;;;;;;0.40;0.40;;;15.30;99.90;;;;;;4383906;32;20075;-73
2021/08/30 03:16:04;;;;;;;0.40;0.40;;;15.40;99.90;;;;;;4383316;32;20078;-73
2021/08/30 03:18:30;;;;;;;0.40;0.40;;;15.40;99.90;;;;;;4384987;32;20125;-73
2021/08/30 03:20:56;;;;;;;0.82;0.82;;;15.30;99.90;;;;;;4384201;32;20071;-73
2021/08/30 03:23:23;;;;;;;0.30;0.30;;;15.30;99.90;;;;;;4383632;32;20067;-73
2021/08/30 03:25:49;;;;;;;0.40;0.40;;;15.30;99.90;;;;;;4383341;32;20070;-73
2021/08/30 03:28:15;;;;;;;0.30;0.30;;;15.30;99.90;;;;;;4383917;32;20078;-73
2021/08/30 03:30:41;;;;;;;0.30;0.30;;;15.30;99.90;;;;;;4383212;32;20062;-73
2021/08/30 03:33:08;;;;;;;0.40;0.40;;;15.20;99.90;;;;;;4383214;32;20091;-73
2021/08/30 03:35:34;;;;;;;0.32;0.32;;;15.30;99.90;;;;;;4383256;32;20065;-73
2021/08/30 03:38:01;;;;;;;0.50;0.50;;;15.30;99.90;;;;;;4384044;32;20122;-73
2021/08/30 03:40:28;;;;;;;0.50;0.50;;;15.20;99.90;;;;;;4383466;32;20113;-73
2021/08/30 03:42:54;;;;;;;0.40;0.40;;;15.30;99.90;;;;;;4383245;32;20079;-73
2021/08/30 03:45:20;;;;;;;0.30;0.30;;;15.30;99.90;;;;;;4382770;32;20066;-73
2021/08/30 03:47:46;;;;;;;0.40;0.40;;;15.30;99.90;;;;;;4383055;32;20087;-73
2021/08/30 03:50:13;;;;;;;0.50;0.50;;;15.20;99.90;;;;;;4383562;32;20136;-73
2021/08/30 03:52:41;;;;;;;0.30;0.30;;;15.20;99.90;;;;;;4383647;32;20059;-73
2021/08/30 03:55:10;;;;;;;0.30;0.30;;;15.30;99.90;;;;;;4383636;32;20087;-73
2021/08/30 03:57:36;;;;;;;0.30;0.30;;;15.30;99.90;;;;;;4384949;32;20074;-73
2021/08/30 04:00:04;;;;;;;0.45;0.45;;;15.30;99.90;;;;;;4386938;32;20121;-73
2021/08/30 04:02:31;;;;;;;0.40;0.40;;;15.20;99.90;;;;;;4387184;32;20065;-73
2021/08/30 04:04:58;;;;;;;0.52;0.52;;;15.10;99.90;;;;;;4385736;32;20083;-73
2021/08/30 04:07:23;;;;;;;0.30;0.30;;;15.10;99.90;;;;;;4386069;32;20066;-73
2021/08/30 04:09:51;;;;;;;0.37;0.37;;;15.00;99.90;;;;;;4386115;32;20406;-73
2021/08/30 04:12:18;;;;;;;0.40;0.40;;;15.00;99.90;;;;;;4385476;32;20079;-73
2021/08/30 04:14:44;;;;;;;0.88;0.62;;;15.00;99.90;;;;;;4385693;32;20086;-73
2021/08/30 04:17:10;;;;;;;0.45;0.45;;;15.00;99.90;;;;;;4386126;32;20466;-73
2021/08/30 04:19:35;;;;;;;0.37;0.37;;;15.00;99.90;;;;;;4385906;32;20066;-73
2021/08/30 04:22:01;;;;;;;0.40;0.40;;;15.00;99.90;;;;;;4377054;32;20083;-73
2021/08/30 04:24:27;;;;;;;0.30;0.30;;;15.10;99.90;;;;;;4375473;32;20063;-73
2021/08/30 04:26:52;;;;;;;0.37;0.37;;;15.10;99.90;;;;;;4368902;32;20087;-73
2021/08/30 04:29:18;;;;;;;0.43;0.37;;;15.10;99.90;;;;;;4385178;32;20062;-73
2021/08/30 04:31:43;;;;;;;0.30;0.30;;;15.10;99.90;;;;;;4385183;32;20421;-73
2021/08/30 04:34:09;;;;;;;1.05;0.75;;;15.10;99.90;;;;;;4385087;32;20066;-73
2021/08/30 04:36:34;;;;;;;0.90;0.82;;;15.00;99.90;;;;;;4385103;32;20074;-73
2021/08/30 04:39:00;;;;;;;0.55;0.55;;;15.00;99.90;;;;;;4385326;32;20062;-73
2021/08/30 04:41:26;;;;;;;0.47;0.47;;;15.00;99.90;;;;;;4399203;32;20074;-73
2021/08/30 04:43:52;;;;;;;0.80;0.80;;;15.00;99.90;;;;;;4400342;32;20078;-73
2021/08/30 04:46:18;;;;;;;0.50;0.50;;;15.00;99.90;;;;;;4399888;32;20452;-73
2021/08/30 04:48:43;;;;;;;1.23;0.70;;;15.00;99.90;;;;;;4400286;32;20126;-73
2021/08/30 04:51:09;;;;;;;0.70;0.70;;;15.10;99.90;;;;;;4400575;32;20484;-73
2021/08/30 04:53:34;;;;;;;1.12;0.43;;;15.10;99.90;;;;;;4388291;32;20436;-73
2021/08/30 04:56:00;;;;;;;0.50;0.50;;;15.10;99.90;;;;;;4385496;32;20091;-73
2021/08/30 04:58:25;;;;;;;0.47;0.47;;;15.10;99.90;;;;;;4384493;32;20078;-73
2021/08/30 05:00:51;;;;;;;0.47;0.47;;;15.10;99.90;;;;;;4379361;32;20086;-73
2021/08/30 05:03:16;;;;;;;0.50;0.50;;;15.20;99.90;;;;;;4373440;32;20426;-73
2021/08/30 05:05:42;;;;;;;0.75;0.75;;;15.20;99.90;;;;;;4383612;32;20102;-73
2021/08/30 05:08:07;;;;;;;0.30;0.30;;;15.30;99.90;;;;;;4386214;32;20131;-73
2021/08/30 05:10:33;;;;;;;1.08;0.75;;;15.30;99.90;;;;;;4395416;32;20066;-73
2021/08/30 05:12:59;;;;;;;0.40;0.40;;;15.30;99.90;;;;;;4382903;32;20069;-73
2021/08/30 05:15:25;;;;;;;0.50;0.50;;;15.30;99.90;;;;;;4376739;32;20446;-73
2021/08/30 05:17:50;;;;;;;0.32;0.32;;;15.40;99.90;;;;;;4369758;32;20074;-73
2021/08/30 05:20:16;;;;;;;0.30;0.30;;;15.40;99.90;;;;;;4380262;32;20523;-73
2021/08/30 05:22:42;;;;;;;1.00;0.70;;;15.40;99.90;;;;;;4384339;32;20086;-73
2021/08/30 05:25:08;;;;;;;0.37;0.37;;;15.40;99.90;;;;;;4383306;32;20086;-73
2021/08/30 05:27:34;;;;;;;0.40;0.40;;;15.50;99.90;;;;;;4366339;32;20090;-73
2021/08/30 05:29:59;;;;;;;0.40;0.40;;;15.50;99.90;;;;;;4372381;32;20122;-73
2021/08/30 05:32:25;;;;;;;1.37;0.90;;;15.50;99.90;;;;;;4356718;32;20106;-73
2021/08/30 05:34:51;;;;;;;0.47;0.47;;;15.50;99.90;;;;;;4379207;32;20079;-73
2021/08/30 05:37:16;;;;;;;0.30;0.30;;;15.50;99.90;;;;;;4384663;32;20113;-72
2021/08/30 05:39:42;;;;;;;1.75;0.55;;;15.40;99.90;;;;;;4376452;32;20121;-73
2021/08/30 05:42:08;;;;;;;0.57;0.57;;;15.50;99.90;;;;;;4378370;32;20106;-72
2021/08/30 05:44:33;;;;;;;0.40;0.40;;;15.50;99.90;;;;;;4379951;32;20160;-72
2021/08/30 05:46:59;;;;;;;0.40;0.40;;;15.50;99.90;;;;;;4382545;32;20075;-73
2021/08/30 05:49:24;;;;;;;0.45;0.45;;;15.50;99.90;;;;;;4378061;32;20149;-72
2021/08/30 05:51:50;;;;;;;0.37;0.37;;;15.60;99.90;;;;;;4384471;32;20086;-73
2021/08/30 05:54:15;;;;;;;0.43;0.43;;;15.50;99.90;;;;;;4378880;32;20082;-74
2021/08/30 05:56:41;;;;;;;1.75;1.10;;;15.50;99.90;;;;;;4377427;32;20124;-74
2021/08/30 05:59:06;;;;;;;1.75;0.73;;;15.50;99.90;;;;;;4377779;32;20103;-73
2021/08/30 06:01:35;;;;;;;0.32;0.32;;;15.50;99.90;;;;;;4377728;32;20121;-74
2021/08/30 06:04:01;;;;;;;0.68;0.68;;;15.60;99.90;;;;;;4374752;32;20085;-73
2021/08/30 06:06:27;;;;;;;0.50;0.50;;;15.60;99.90;;;;;;4371888;32;20095;-72
2021/08/30 06:08:52;;;;;;;1.65;0.70;;;15.60;99.90;;;;;;4371115;32;20406;-73
2021/08/30 06:11:18;;;;;;;2.80;0.77;;;15.60;99.90;;;;;;4374520;32;20421;-73
2021/08/30 06:13:44;;;;;;;1.45;0.70;;;15.50;99.90;;;;;;4377309;32;20158;-73
2021/08/30 06:16:09;;;;;;;2.28;1.10;;;15.50;99.90;;;;;;4376067;32;20531;-72
2021/08/30 06:18:34;;;;;;;1.20;0.77;;;15.50;99.90;;;;;;4366718;32;20094;-73
2021/08/30 06:21:00;;;;;;;4.10;0.73;;;15.50;99.90;;;;;;4370482;32;20075;-73
2021/08/30 06:23:26;;;;;;;0.47;0.47;;;15.50;99.90;;;;;;4363606;32;100451;-73
2021/08/30 06:25:52;;;;;;;0.57;0.57;;;15.50;99.90;;;;;;4372537;32;20134;-73
2021/08/30 06:28:17;;;;;;;0.50;0.50;;;15.50;99.90;;;;;;4369847;32;20460;-73
2021/08/30 06:30:43;;;;;;;0.60;0.60;;;15.50;99.90;;;;;;4367898;32;20074;-73
2021/08/30 06:33:09;;;;;;;1.25;0.80;;;15.60;99.90;;;;;;4371200;32;20646;-72
2021/08/30 06:35:37;;;;;;;0.57;0.50;;;15.60;99.90;;;;;;4373346;32;20449;-73
2021/08/30 06:38:02;;;;;;;0.40;0.40;;;15.70;99.90;;;;;;4373405;32;20099;-74
2021/08/30 06:40:28;;;;;;;0.62;0.62;;;15.70;99.90;;;;;;4374574;32;20066;-73
2021/08/30 06:42:53;;;;;;;5.62;0.73;;;15.80;99.90;;;;;;4372779;32;20372;-72
2021/08/30 06:45:22;;;;;;;1.92;0.90;;;15.80;99.90;;;;;;4373707;32;20099;-73
2021/08/30 06:47:48;;;;;;;2.15;0.93;;;15.80;99.90;;;;;;4374924;32;20897;-72
2021/08/30 06:50:14;;;;;;;3.90;1.60;;;15.70;99.90;;;;;;4372336;32;20077;-73
2021/08/30 06:52:39;;;;;;;1.00;0.62;;;15.80;99.90;;;;;;4370605;32;20602;-73
2021/08/30 06:55:05;;;;;;;1.95;0.90;;;15.80;99.90;;;;;;4369879;32;20491;-74
2021/08/30 06:57:34;;;;;;;4.00;1.37;;;15.80;99.90;;;;;;4370004;32;20078;-73
2021/08/30 07:00:00;;;;;;;0.50;0.50;;;15.80;99.90;;;;;;4370536;32;20081;-74
2021/08/30 07:02:26;;;;;;;0.60;0.60;;;15.80;99.90;;;;;;4366955;32;20523;-74
2021/08/30 07:04:51;;;;;;;2.08;1.00;;;15.90;99.90;;;;;;4368920;32;20074;-73
2021/08/30 07:07:17;;;;;;;5.28;1.00;;;15.80;99.90;;;;;;4370985;32;20082;-72
2021/08/30 07:09:42;;;;;;;1.00;0.80;;;15.80;99.90;;;;;;4365992;32;20093;-73
2021/08/30 07:12:08;;;;;;;4.53;0.73;;;15.90;99.90;;;;;;4372935;32;20074;-73
2021/08/30 07:14:33;;;;;;;6.93;1.10;;;15.90;99.90;;;;;;4378951;32;20746;-72
2021/08/30 07:16:59;;;;;;;2.03;1.12;;;16.00;99.90;;;;;;4377156;32;20420;-74
2021/08/30 07:19:24;;;;;;;5.93;1.00;;;16.10;99.90;;;;;;4372664;32;20091;-74
2021/08/30 07:21:50;;;;;;;0.95;0.88;;;16.00;99.90;;;;;;4373120;32;20082;-74
2021/08/30 07:24:16;;;;;;;0.80;0.80;;;16.00;99.90;;;;;;4369840;32;20070;-74
2021/08/30 07:26:42;;;;;;;0.70;0.70;;;16.00;99.90;;;;;;4370581;32;20544;-73
2021/08/30 07:29:07;;;;;;;0.65;0.65;;;16.00;99.90;;;;;;4225778;27;20087;-79
2021/08/30 07:34:01;;;;;;;0.50;0.50;;;16.00;99.90;;;;;;4352643;32;20178;-65
2021/08/30 07:36:26;;;;;;;1.17;0.73;;;16.00;99.90;;;;;;4359623;32;20071;-65
2021/08/30 07:38:52;;;;;;;0.70;0.70;;;16.10;99.90;;;;;;4344551;32;20655;-65
2021/08/30 07:41:17;;;;;;;0.68;0.43;;;16.20;99.90;;;;;;4354120;32;20094;-65
2021/08/30 07:43:43;;;;;;;1.77;1.10;;;16.30;99.90;;;;;;4354644;32;20079;-66
2021/08/30 07:46:08;;;;;;;0.57;0.57;;;16.30;99.90;;;;;;4353999;32;20086;-65
2021/08/30 07:48:35;;;;;;;0.65;0.60;;;16.30;99.90;;;;;;4356225;32;20770;-65
2021/08/30 07:51:01;;;;;;;0.40;0.40;;;16.40;99.90;;;;;;4354686;32;20207;-65
2021/08/30 07:53:27;;;;;;;0.50;0.50;;;16.40;99.90;;;;;;4357200;32;20082;-65
2021/08/30 07:55:54;;;;;;;0.82;0.82;;;16.40;99.90;;;;;;4352757;32;20079;-65
2021/08/30 07:58:20;;;;;;;0.57;0.57;;;16.40;99.90;;;;;;4361597;32;20086;-65
2021/08/30 08:00:46;;;;;;;0.50;0.50;;;16.50;99.90;;;;;;4363798;32;20068;-65
2021/08/30 08:03:12;;;;;;;3.47;0.82;;;16.50;99.90;;;;;;4358667;32;20293;-65
2021/08/30 08:05:38;;;;;;;0.90;0.40;;;16.50;99.90;;;;;;4350776;32;20452;-65
2021/08/30 08:08:05;;;;;;;0.55;0.55;;;16.60;99.90;;;;;;4354344;32;20656;-65
2021/08/30 08:10:31;;;;;;;0.50;0.50;;;16.60;99.90;;;;;;4362916;32;20496;-65
2021/08/30 08:12:56;;;;;;;0.50;0.50;;;16.60;99.90;;;;;;4358456;32;20090;-65
2021/08/30 08:15:22;;;;;;;0.52;0.52;;;16.60;99.90;;;;;;4357589;32;20079;-64
2021/08/30 08:17:48;;;;;;;0.47;0.47;;;16.50;99.90;;;;;;4354874;32;20070;-64
2021/08/30 08:20:14;;;;;;;0.68;0.68;;;16.40;99.90;;;;;;4353755;32;20079;-64
2021/08/30 08:22:40;;;;;;;4.28;0.88;;;16.40;99.90;;;;;;4361218;32;20511;-64
2021/08/30 08:25:07;;;;;;;0.40;0.40;;;16.40;99.90;;;;;;4359131;32;20560;-64
2021/08/30 08:27:33;;;;;;;0.60;0.60;;;16.40;99.90;;;;;;4358637;32;20079;-65
2021/08/30 08:29:58;;;;;;;0.45;0.45;;;16.40;99.90;;;;;;4353325;32;20087;-64
2021/08/30 08:32:24;;;;;;;0.50;0.50;;;16.40;99.90;;;;;;4353965;32;20553;-65
2021/08/30 08:34:50;;;;;;;2.85;1.30;;;16.50;99.90;;;;;;4345171;32;20091;-64
2021/08/30 08:37:16;;;;;;;0.37;0.37;;;16.40;99.90;;;;;;4352592;32;20585;-64
2021/08/30 08:39:42;;;;;;;2.22;0.82;;;16.50;99.90;;;;;;4356757;32;20082;-66
2021/08/30 08:42:07;;;;;;;0.60;0.60;;;16.60;99.90;;;;;;4357550;32;20639;-66
2021/08/30 08:44:33;;;;;;;0.80;0.80;;;16.70;99.90;;;;;;4350882;32;22720;-66
2021/08/30 08:46:59;;;;;;;1.00;0.57;;;16.80;99.90;;;;;;4352453;32;20094;-66
2021/08/30 08:49:25;;;;;;;0.98;0.52;;;16.80;99.90;;;;;;4353690;32;20059;-66
2021/08/30 08:51:50;;;;;;;0.55;0.55;;;16.80;99.90;;;;;;4351148;32;20091;-66
2021/08/30 08:54:16;;;;;;;0.60;0.60;;;16.90;99.90;;;;;;4358766;32;20135;-66
2021/08/30 08:56:42;;;;;;;0.60;0.60;;;16.80;99.90;;;;;;4357552;32;20417;-66
2021/08/30 08:59:07;;;;;;;0.40;0.40;;;16.80;99.90;;;;;;4355605;32;20646;-65
2021/08/30 09:01:36;;;;;;;2.45;0.70;;;16.80;99.90;;;;;;4356681;32;20074;-65
2021/08/30 09:04:03;;;;;;;0.82;0.73;;;16.70;99.90;;;;;;4355962;32;20535;-65
2021/08/30 09:06:31;;;;;;;2.05;0.98;;;16.70;99.90;;;;;;4355412;32;20141;-66
2021/08/30 09:08:59;;;;;;;2.10;1.02;;;16.60;99.90;;;;;;4351382;32;20103;-65
2021/08/30 09:11:35;;;;;;;3.22;0.90;;;16.60;99.90;;;;;;4357703;32;20693;-65
2021/08/30 09:14:01;;;;;;;1.62;0.95;;;16.60;99.90;;;;;;4359460;32;20067;-65
2021/08/30 09:16:28;;;;;;;1.33;0.65;;;16.50;99.90;;;;;;4360266;32;20082;-64
2021/08/30 09:19:10;;;;;;;0.98;0.65;;;16.60;99.90;;;;;;4350919;32;20102;-64
2021/08/30 09:21:43;;;;;;;0.57;0.57;;;16.60;99.90;;;;;;4353744;32;20428;-64
2021/08/30 09:24:12;;;;;;;0.30;0.30;;;16.70;99.90;;;;;;4352934;32;20095;-63
2021/08/30 09:27:01;;;;;;;9.23;0.52;;;16.80;99.90;;;;;;4351342;32;20591;-64
2021/08/30 09:29:28;;;;;;;1.25;0.70;;;16.70;99.90;;;;;;4343109;32;20130;-63
2021/08/30 09:32:12;;;;;;;0.40;0.40;;;16.70;99.90;;;;;;4350278;32;20082;-63
2021/08/30 09:34:42;;;;;;;0.32;0.32;;;16.80;99.90;;;;;;4351540;32;20091;-64
2021/08/30 09:37:26;;;;;;;0.40;0.40;;;16.80;99.90;;;;;;4349724;32;20694;-64
2021/08/30 09:39:58;;;;;;;0.45;0.45;;;16.80;99.90;;;;;;4351679;32;20392;-64
2021/08/30 09:42:25;;;;;;;0.40;0.40;;;16.80;99.90;;;;;;4354329;32;20075;-64
2021/08/30 09:44:51;;;;;;;1.65;1.20;;;16.80;99.90;;;;;;4354561;32;20891;-64
2021/08/30 09:47:21;;;;;;;0.40;0.40;;;16.90;99.90;;;;;;4349805;32;20126;-64
2021/08/30 09:49:48;;;;;;;0.93;0.68;;;16.80;99.90;;;;;;4345834;32;20856;-64
2021/08/30 09:52:13;;;;;;;0.45;0.40;;;16.80;99.90;;;;;;4349844;32;21128;-64
2021/08/30 09:54:39;;;;;;;0.40;0.40;;;16.80;99.90;;;;;;4351409;32;20051;-63
2021/08/30 09:57:05;;;;;;;0.35;0.35;;;16.80;99.90;;;;;;4345442;32;20595;-64
2021/08/30 09:59:30;;;;;;;0.40;0.40;;;16.90;99.90;;;;;;4344634;32;20130;-64
2021/08/30 10:02:00;;;;;;;0.50;0.50;;;16.90;99.90;;;;;;4356433;32;20090;-64
2021/08/30 10:04:26;;;;;;;1.02;0.62;;;16.80;99.90;;;;;;4350969;32;20151;-64
2021/08/30 10:06:54;;;;;;;0.43;0.43;;;16.80;99.90;;;;;;4353406;32;20082;-64
2021/08/30 10:09:20;;;;;;;0.40;0.40;;;16.90;99.90;;;;;;4351517;32;20095;-64
2021/08/30 10:11:47;;;;;;;1.30;0.43;;;16.90;99.90;;;;;;4351936;32;20087;-64
2021/08/30 10:14:17;;;;;;;0.45;0.45;;;17.00;99.90;;;;;;4357453;32;20074;-64
2021/08/30 10:16:43;;;;;;;5.75;2.20;;;17.00;99.90;;;;;;4355834;32;20081;-64
2021/08/30 10:19:09;;;;;;;1.10;0.52;;;17.00;99.90;;;;;;4353571;32;20082;-64
2021/08/30 10:21:50;;;;;;;1.23;0.40;;;16.90;99.90;;;;;;4355563;32;20146;-64
2021/08/30 10:24:17;;;;;;;0.50;0.50;;;16.90;99.90;;;;;;4352780;32;21262;-63
2021/08/30 10:26:45;;;;;;;0.40;0.40;;;16.90;99.90;;;;;;4354473;32;20079;-63
2021/08/30 10:29:11;;;;;;;0.40;0.40;;;17.00;99.90;;;;;;4360996;32;20151;-63
2021/08/30 10:31:47;;;;;;;0.62;0.60;;;17.10;99.90;;;;;;4364652;32;20086;-62
2021/08/30 10:34:24;;;;;;;0.55;0.55;;;17.10;99.90;;;;;;4356041;32;20144;-62
2021/08/30 10:36:49;;;;;;;0.40;0.40;;;17.20;99.90;;;;;;4356655;32;20159;-64
2021/08/30 10:39:14;;;;;;;0.95;0.60;;;17.20;99.90;;;;;;4359795;32;20071;-64
2021/08/30 10:41:43;;;;;;;1.05;0.95;;;17.30;99.90;;;;;;4359671;32;20099;-66
2021/08/30 10:44:12;;;;;;;1.17;0.60;;;17.30;99.90;;;;;;4361975;32;20062;-64
2021/08/30 10:46:41;;;;;;;0.40;0.40;;;17.40;99.90;;;;;;4358615;32;20250;-66
2021/08/30 10:49:11;;;;;;;0.40;0.40;;;17.40;99.90;;;;;;4357482;32;20092;-64
2021/08/30 10:51:39;;;;;;;0.40;0.40;;;17.40;99.90;;;;;;4358049;32;20250;-65
2021/08/30 10:54:08;;;;;;;2.08;1.15;;;17.30;99.90;;;;;;4356799;32;20122;-65
2021/08/30 10:56:34;;;;;;;1.17;0.50;;;17.40;99.90;;;;;;4356159;32;20078;-64
2021/08/30 10:59:06;;;;;;;0.55;0.55;;;17.40;99.90;;;;;;4358259;32;20409;-64
2021/08/30 11:01:34;;;;;;;1.08;0.50;;;17.40;99.90;;;;;;4359604;32;20083;-64
2021/08/30 11:04:00;;;;;;;0.30;0.30;;;17.40;99.90;;;;;;4354116;32;20078;-64
2021/08/30 11:06:26;;;;;;;0.40;0.40;;;17.50;99.90;;;;;;4359070;32;20519;-64
2021/08/30 11:08:52;;;;;;;0.40;0.40;;;17.50;99.90;;;;;;4360446;32;20075;-64
2021/08/30 11:11:21;;;;;;;0.40;0.40;;;17.50;99.90;;;;;;4358953;32;20078;-65
2021/08/30 11:14:06;;;;;;;0.43;0.30;;;17.50;99.90;;;;;;4357240;32;20391;-64
2021/08/30 11:16:34;;;;;;;0.43;0.37;;;17.60;99.90;;;;;;4361816;32;20102;-64
2021/08/30 11:19:16;;;;;;;0.35;0.35;;;17.60;99.90;;;;;;4347465;32;20059;-62
2021/08/30 11:21:47;;;;;;;0.50;0.50;;;17.50;99.90;;;;;;4360087;32;20067;-64
2021/08/30 11:24:23;;;;;;;0.55;0.55;;;17.50;99.90;;;;;;4359630;32;20079;-64
2021/08/30 11:26:49;;;;;;;0.50;0.50;;;17.60;99.90;;;;;;4359112;32;20086;-64
2021/08/30 11:29:14;;;;;;;0.60;0.50;;;17.70;99.90;;;;;;4361572;32;20375;-64
2021/08/30 11:31:40;;;;;;;1.25;0.45;;;17.70;99.90;;;;;;4359963;32;20504;-63
2021/08/30 11:34:09;;;;;;;0.30;0.30;;;17.70;99.90;;;;;;4361391;32;20155;-64
2021/08/30 11:36:50;;;;;;;0.40;0.40;;;17.70;99.90;;;;;;4350121;32;20186;-64
2021/08/30 11:39:17;;;;;;;0.77;0.60;;;17.60;99.90;;;;;;4356847;32;20079;-64
2021/08/30 11:41:43;;;;;;;0.32;0.32;;;17.70;99.90;;;;;;4378715;27;20067;-72
2021/08/30 11:44:10;;;;;;;0.40;0.40;;;17.70;99.90;;;;;;4365682;32;20496;-73
2021/08/30 11:46:55;;;;;;;0.30;0.30;;;17.80;99.90;;;;;;4364792;32;20579;-75
2021/08/30 11:49:25;;;;;;;0.32;0.32;;;17.80;99.90;;;;;;4364710;32;20069;-73
2021/08/30 11:51:53;;;;;;;0.45;0.45;;;17.80;99.90;;;;;;4364942;32;20102;-74
2021/08/30 11:54:27;;;;;;;1.65;0.60;;;17.80;99.90;;;;;;4360179;32;20098;-74
2021/08/30 11:56:58;;;;;;;0.30;0.30;;;18.00;99.90;;;;;;4361701;32;20079;-74
2021/08/30 11:59:29;;;;;;;0.30;0.30;;;18.00;99.90;;;;;;4354224;32;20078;-74
2021/08/30 12:01:55;;;;;;;0.40;0.40;;;18.10;99.90;;;;;;4370984;32;20531;-74
2021/08/30 12:04:21;;;;;;;0.60;0.60;;;18.20;99.90;;;;;;4369021;32;20305;-74
2021/08/30 12:06:50;;;;;;;0.50;0.50;;;18.30;99.90;;;;;;4367299;32;20819;-74
2021/08/30 12:09:16;;;;;;;0.50;0.50;;;18.20;99.90;;;;;;4365573;32;20135;-74
2021/08/30 12:11:48;;;;;;;0.30;0.30;;;18.20;99.90;;;;;;4363599;32;20165;-75
2021/08/30 12:14:14;;;;;;;0.37;0.37;;;18.20;99.90;;;;;;4365618;32;20172;-74
2021/08/30 12:16:43;;;;;;;0.45;0.45;;;18.10;99.90;;;;;;4367685;32;20396;-75
2021/08/30 12:19:09;;;;;;;0.40;0.35;;;18.20;99.90;;;;;;4367667;32;20086;-74
2021/08/30 12:21:37;;;;;;;0.37;0.37;;;18.30;99.90;;;;;;4368138;32;20323;-74
2021/08/30 12:24:05;;;;;;;0.20;0.20;;;18.50;99.90;;;;;;4366899;32;20094;-73
2021/08/30 12:26:30;;;;;;;0.30;0.30;;;18.50;99.90;;;;;;4362375;32;21365;-73
2021/08/30 12:28:59;;;;;;;0.30;0.30;;;18.50;99.90;;;;;;4364023;32;20111;-74
2021/08/30 12:31:29;;;;;;;0.30;0.30;;;18.40;99.90;;;;;;4360524;32;20271;-75
2021/08/30 12:34:12;;;;;;;0.37;0.37;;;18.30;99.90;;;;;;4362780;32;20500;-77
2021/08/30 12:36:38;;;;;;;0.47;0.40;;;18.30;99.90;;;;;;4364059;32;20156;-75
2021/08/30 12:39:06;;;;;;;0.30;0.30;;;18.30;99.90;;;;;;4355310;32;20110;-75
2021/08/30 12:41:32;;;;;;;0.45;0.45;;;18.30;99.90;;;;;;4361576;32;20534;-75
2021/08/30 12:43:58;;;;;;;1.62;1.15;;;18.30;99.90;;;;;;4369933;32;20559;-74
2021/08/30 12:46:24;;;;;;;0.30;0.30;;;18.30;99.90;;;;;;4366874;32;20089;-74
2021/08/30 12:48:51;;;;;;;0.30;0.30;;;18.40;99.90;;;;;;4372576;32;20078;-75
2021/08/30 12:51:16;;;;;;;0.52;0.37;;;18.30;99.90;;;;;;4368027;32;20186;-75